createdAt,value
2019-04-28T00:02:12.599Z,101046.86
2019-04-28T00:07:06.567Z,101041.76
2019-04-28T00:12:01.751Z,101035.54
2019-04-28T00:16:55.524Z,101038.28
2019-04-28T00:21:58.416Z,101034.53
2019-04-28T00:27:03.171Z,101031.22
2019-04-28T00:31:57.622Z,101034.14
2019-04-28T00:37:01.301Z,101032.29
2019-04-28T00:41:55.284Z,101030.39
2019-04-28T00:46:51.043Z,101027.36
2019-04-28T00:51:45.043Z,101026.59
2019-04-28T00:56:39.323Z,101030.13
2019-04-28T01:01:44.160Z,101028.86
2019-04-28T01:06:38.367Z,101030.23
2019-04-28T01:11:32.367Z,101039.27
2019-04-28T01:16:41.284Z,101033.41
2019-04-28T01:21:53.308Z,101037.02
2019-04-28T01:26:50.814Z,101034.59
2019-04-28T01:31:52.218Z,101039.44
2019-04-28T01:36:46.105Z,101034.11
2019-04-28T01:41:40.142Z,101036.69
2019-04-28T01:46:34.319Z,101044.23
2019-04-28T01:51:28.386Z,101044.76
2019-04-28T01:56:23.939Z,101048.47
2019-04-28T02:01:18.059Z,101052.78
2019-04-28T02:06:12.159Z,101047.06
2019-04-28T02:11:06.222Z,101051.50
2019-04-28T02:16:00.325Z,101049.81
2019-04-28T02:21:01.872Z,101047.70
2019-04-28T02:25:55.761Z,101046.45
2019-04-28T02:30:53.629Z,101049.36
2019-04-28T02:35:45.640Z,101056.83
2019-04-28T02:40:40.562Z,101059.86
2019-04-28T02:45:36.160Z,101054.25
2019-04-28T02:51:01.979Z,101059.89
2019-04-28T02:55:55.969Z,101066.75
2019-04-28T03:01:02.849Z,101064.17
2019-04-28T03:05:45.810Z,101063.64
2019-04-28T03:10:41.091Z,101066.50
2019-04-28T03:15:35.339Z,101066.11
2019-04-28T03:20:30.640Z,101069.77
2019-04-28T03:25:33.540Z,101072.98
2019-04-28T03:30:54.997Z,101076.16
2019-04-28T03:35:53.060Z,101075.72
2019-04-28T03:40:44.721Z,101079.14
2019-04-28T03:45:44.222Z,101079.56
2019-04-28T03:50:41.201Z,101082.16
2019-04-28T03:55:34.956Z,101074.30
2019-04-28T04:00:31.253Z,101084.17
2019-04-28T04:05:24.810Z,101083.55
2019-04-28T04:10:32.193Z,101085.01
2019-04-28T04:15:53.980Z,101085.22
2019-04-28T04:20:47.538Z,101085.38
2019-04-28T04:25:42.019Z,101087.25
2019-04-28T04:30:36.094Z,101089.55
2019-04-28T04:35:31.606Z,101093.42
2019-04-28T04:40:25.783Z,101096.14
2019-04-28T04:45:20.301Z,101102.17
2019-04-28T04:50:14.355Z,101109.03
2019-04-28T04:55:11.023Z,101111.05
2019-04-28T05:00:06.518Z,101118.30
2019-04-28T05:05:07.078Z,101119.81
2019-04-28T05:10:01.162Z,101125.02
2019-04-28T05:14:55.052Z,101130.30
2019-04-28T05:19:49.718Z,101133.55
2019-04-28T05:24:54.427Z,101137.46
2019-04-28T05:29:47.364Z,101141.05
2019-04-28T05:34:46.662Z,101138.95
2019-04-28T05:39:38.610Z,101143.73
2019-04-28T05:44:32.951Z,101145.33
2019-04-28T05:49:55.072Z,101144.08
2019-04-28T05:54:54.990Z,101151.76
2019-04-28T06:00:01.009Z,101150.47
2019-04-28T06:04:53.817Z,101148.43
2019-04-28T06:09:50.175Z,101148.05
2019-04-28T06:14:44.189Z,101145.36
2019-04-28T06:19:38.007Z,101144.34
2019-04-28T06:24:31.853Z,101160.03
2019-04-28T06:29:25.885Z,101160.30
2019-04-28T06:34:19.826Z,101168.52
2019-04-28T06:39:13.864Z,101174.98
2019-04-28T06:44:07.936Z,101178.80
2019-04-28T06:49:01.833Z,101182.02
2019-04-28T06:53:56.034Z,101184.47
2019-04-28T06:58:58.819Z,101180.08
2019-04-28T07:03:45.970Z,101168.99
2019-04-28T07:08:40.023Z,101171.26
2019-04-28T07:13:34.040Z,101172.04
2019-04-28T07:18:28.156Z,101171.47
2019-04-28T07:23:22.253Z,101170.28
2019-04-28T07:28:16.317Z,101162.45
2019-04-28T07:33:10.629Z,101157.48
2019-04-28T07:38:04.610Z,101162.73
2019-04-28T07:42:58.532Z,101154.34
2019-04-28T07:47:52.620Z,101162.52
2019-04-28T07:52:51.744Z,101174.97
2019-04-28T07:57:45.804Z,101190.30
2019-04-28T08:02:39.828Z,101189.27
2019-04-28T08:07:34.292Z,101187.66
2019-04-28T08:12:28.394Z,101179.61
2019-04-28T08:17:22.270Z,101152.74
2019-04-28T08:22:16.555Z,101159.55
2019-04-28T08:27:10.578Z,101171.40
2019-04-28T08:32:16.127Z,101187.77
2019-04-28T08:37:10.187Z,101190.67
2019-04-28T08:42:05.257Z,101204.97
2019-04-28T08:46:59.465Z,101210.00
2019-04-28T08:51:53.333Z,101207.98
2019-04-28T08:56:47.453Z,101198.85
2019-04-28T09:01:41.409Z,101183.79
2019-04-28T09:06:35.336Z,101190.47
2019-04-28T09:11:29.286Z,101216.59
2019-04-28T09:16:23.195Z,101225.71
2019-04-28T09:21:17.280Z,101227.65
2019-04-28T09:26:11.380Z,101237.73
2019-04-28T09:31:05.566Z,101233.84
2019-04-28T09:35:59.587Z,101232.66
2019-04-28T09:40:53.520Z,101230.84
2019-04-28T09:45:52.714Z,101236.39
2019-04-28T09:50:46.794Z,101231.16
2019-04-28T09:55:40.941Z,101216.25
2019-04-28T10:00:36.149Z,101212.33
2019-04-28T10:05:30.271Z,101212.38
2019-04-28T10:10:24.185Z,101215.09
2019-04-28T10:15:18.329Z,101221.30
2019-04-28T10:20:12.758Z,101243.09
2019-04-28T10:25:06.923Z,101238.88
2019-04-28T10:30:00.993Z,101226.17
2019-04-28T10:34:55.471Z,101231.02
2019-04-28T10:39:54.990Z,101219.82
2019-04-28T10:44:50.262Z,101220.64
2019-04-28T10:49:44.483Z,101213.20
2019-04-28T10:54:38.467Z,101221.52
2019-04-28T10:59:32.553Z,101219.08
2019-04-28T11:04:44.369Z,101216.67
2019-04-28T11:09:43.296Z,101220.48
2019-04-28T11:14:37.120Z,101214.08
2019-04-28T11:19:31.115Z,101213.49
2019-04-28T11:24:24.903Z,101217.77
2019-04-28T11:29:18.828Z,101221.33
2019-04-28T11:34:32.291Z,101215.92
2019-04-28T11:39:31.076Z,101212.98
2019-04-28T11:44:24.842Z,101217.03
2019-04-28T11:49:18.741Z,101208.64
2019-04-28T11:54:12.782Z,101217.73
2019-04-28T11:59:06.969Z,101213.42
2019-04-28T12:04:02.973Z,101230.02
2019-04-28T12:09:02.215Z,101227.66
2019-04-28T12:14:12.796Z,101213.57
2019-04-28T12:19:12.206Z,101230.66
2019-04-28T12:24:06.116Z,101235.69
2019-04-28T12:29:00.918Z,101222.97
2019-04-28T12:33:56.551Z,101242.28
2019-04-28T12:38:50.409Z,101251.55
2019-04-28T12:43:44.422Z,101246.78
2019-04-28T12:48:38.415Z,101251.00
2019-04-28T12:53:32.706Z,101247.75
2019-04-28T12:58:26.788Z,101256.09
2019-04-28T13:03:36.176Z,101270.39
2019-04-28T13:08:30.071Z,101278.19
2019-04-28T13:13:23.953Z,101283.22
2019-04-28T13:18:17.923Z,101285.45
2019-04-28T13:23:11.956Z,101285.58
2019-04-28T13:28:05.786Z,101285.47
2019-04-28T13:32:59.712Z,101294.39
2019-04-28T13:37:53.607Z,101300.02
2019-04-28T13:42:48.086Z,101297.44
2019-04-28T13:47:42.123Z,101287.72
2019-04-28T13:52:36.127Z,101286.97
2019-04-28T13:57:29.960Z,101302.93
2019-04-28T14:02:55.073Z,101302.16
2019-04-28T14:07:49.092Z,101297.00
2019-04-28T14:12:42.991Z,101303.64
2019-04-28T14:17:37.061Z,101306.98
2019-04-28T14:22:31.049Z,101318.93
2019-04-28T14:27:24.896Z,101326.80
2019-04-28T14:32:18.568Z,101326.46
2019-04-28T14:37:12.436Z,101319.55
2019-04-28T14:42:06.143Z,101308.23
2019-04-28T14:46:59.959Z,101317.41
2019-04-28T14:51:53.892Z,101322.39
2019-04-28T14:56:48.093Z,101328.22
2019-04-28T15:02:07.778Z,101323.06
2019-04-28T15:07:07.182Z,101326.71
2019-04-28T15:12:03.658Z,101323.57
2019-04-28T15:16:57.639Z,101332.00
2019-04-28T15:21:54.466Z,101331.38
2019-04-28T15:26:47.586Z,101338.35
2019-04-28T15:31:41.676Z,101344.45
2019-04-28T15:36:35.654Z,101340.05
2019-04-28T15:41:29.675Z,101342.88
2019-04-28T15:46:23.507Z,101340.42
2019-04-28T15:51:17.325Z,101345.37
2019-04-28T15:56:17.436Z,101337.70
2019-04-28T16:01:11.389Z,101342.99
2019-04-28T16:06:05.543Z,101336.14
2019-04-28T16:10:59.544Z,101334.11
2019-04-28T16:15:54.530Z,101332.58
2019-04-28T16:20:48.535Z,101331.64
2019-04-28T16:25:42.523Z,101335.37
2019-04-28T16:30:36.528Z,101328.58
2019-04-28T16:35:30.620Z,101332.77
2019-04-28T16:40:51.212Z,101338.91
2019-04-28T16:45:45.112Z,101344.19
2019-04-28T16:50:39.213Z,101357.26
2019-04-28T16:55:44.667Z,101368.52
2019-04-28T17:00:53.581Z,101369.05
2019-04-28T17:05:47.509Z,101369.09
2019-04-28T17:10:41.483Z,101368.50
2019-04-28T17:15:35.603Z,101376.88
2019-04-28T17:20:29.608Z,101384.84
2019-04-28T17:25:23.538Z,101386.83
2019-04-28T17:30:19.255Z,101387.16
2019-04-28T17:35:13.598Z,101389.09
2019-04-28T17:40:07.618Z,101392.98
2019-04-28T17:45:01.592Z,101393.43
2019-04-28T17:49:55.484Z,101400.49
2019-04-28T17:54:49.473Z,101407.29
2019-04-28T17:59:44.372Z,101415.80
2019-04-28T18:05:12.974Z,101426.44
2019-04-28T18:10:09.630Z,101435.28
2019-04-28T18:15:15.700Z,101445.03
2019-04-28T18:20:11.246Z,101454.16
2019-04-28T18:25:05.270Z,101460.48
2019-04-28T18:29:59.265Z,101477.48
2019-04-28T18:35:12.764Z,101479.19
2019-04-28T18:40:38.912Z,101490.56
2019-04-28T18:45:32.999Z,101497.31
2019-04-28T18:50:27.089Z,101500.13
2019-04-28T18:55:21.018Z,101497.38
2019-04-28T19:00:15.003Z,101517.12
2019-04-28T19:05:10.570Z,101527.18
2019-04-28T19:10:13.000Z,101530.14
2019-04-28T19:15:32.799Z,101531.97
2019-04-28T19:20:26.723Z,101544.73
2019-04-28T19:25:20.704Z,101555.47
2019-04-28T19:30:14.993Z,101561.77
2019-04-28T19:35:09.127Z,101568.31
2019-04-28T19:40:03.208Z,101573.63
2019-04-28T19:44:57.061Z,101577.05
2019-04-28T19:49:50.952Z,101584.61
2019-04-28T19:55:03.091Z,101583.64
2019-04-28T20:00:15.179Z,101593.31
2019-04-28T20:05:09.186Z,101598.26
2019-04-28T20:10:03.151Z,101595.16
2019-04-28T20:14:56.970Z,101604.11
2019-04-28T20:19:51.116Z,101606.23
2019-04-28T20:24:47.198Z,101610.34
2019-04-28T20:29:41.742Z,101619.17
2019-04-28T20:34:35.648Z,101622.47
2019-04-28T20:39:30.691Z,101619.40
2019-04-28T20:44:24.283Z,101627.39
2019-04-28T20:49:18.147Z,101627.45
2019-04-28T20:54:12.037Z,101625.84
2019-04-28T20:59:06.052Z,101627.14
2019-04-28T21:03:59.898Z,101630.58
2019-04-28T21:08:53.113Z,101638.05
2019-04-28T21:13:46.738Z,101637.44
2019-04-28T21:18:40.467Z,101638.56
2019-04-28T21:23:34.049Z,101646.99
2019-04-28T21:28:27.701Z,101649.74
2019-04-28T21:33:21.412Z,101649.16
2019-04-28T21:38:15.303Z,101658.29
2019-04-28T21:43:27.189Z,101663.92
2019-04-28T21:48:39.202Z,101668.44
2019-04-28T21:53:33.018Z,101668.61
2019-04-28T21:58:33.526Z,101667.64
2019-04-28T22:03:22.534Z,101673.55
2019-04-28T22:08:16.325Z,101675.30
2019-04-28T22:13:09.978Z,101676.19
2019-04-28T22:18:05.825Z,101677.42
2019-04-28T22:23:01.593Z,101682.13
2019-04-28T22:27:55.470Z,101680.30
2019-04-28T22:32:49.334Z,101679.63
2019-04-28T22:37:43.113Z,101680.49
2019-04-28T22:42:36.999Z,101679.72
2019-04-28T22:47:30.910Z,101683.23
2019-04-28T22:52:24.605Z,101687.87
2019-04-28T22:57:41.300Z,101697.58
2019-04-28T23:02:35.500Z,101698.05
2019-04-28T23:07:29.272Z,101701.64
2019-04-28T23:12:22.927Z,101712.98
2019-04-28T23:17:19.694Z,101716.38
2019-04-28T23:22:19.072Z,101717.39
2019-04-28T23:27:12.728Z,101720.17
2019-04-28T23:32:07.344Z,101729.22
2019-04-28T23:37:01.265Z,101723.53
2019-04-28T23:42:06.074Z,101729.25
2019-04-28T23:47:00.385Z,101733.48
2019-04-28T23:52:06.035Z,101730.17
2019-04-28T23:56:59.750Z,101733.29
